New York, New York
Current Conditions -  °F | °C
As of 7:51 PM on Monday 24 Nov 2014 (Local Time) from KNYC Reporting Station
Clear Clear  
Wind Chill: 18°   Ceiling: Unl
Heat Index: 18°   Visibility: 10mi
Dew Point: 12°   Wind: 6mph
Humidity: 68%   Direction: 180°S
Pressure: 29.71"   Gusts: NA
Location:  40.71°N, 74.01°W
Report Text: KNYC 250051Z AUTO 18005KT 10SM CLR 18/12 A2971 RMK AO2 SLP050 T01830122 $
Loading
Personal Weather Stations






























Interactive Weather Map New forecast layout! Learn more

10-Day Weather Forecast

Advertisements
Track Severe Weather on mobile